sensor_id;sensor_type;location;lat;lon;timestamp;P1;durP1;ratioP1;P2;durP2;ratioP2
18685;SDS011;9473;52.342;13.110;2023-04-08T00:00:42;13.25;;;6.80;;
18685;SDS011;9473;52.342;13.110;2023-04-08T00:03:11;15.52;;;6.90;;
18685;SDS011;9473;52.342;13.110;2023-04-08T00:05:38;12.25;;;5.82;;
18685;SDS011;9473;52.342;13.110;2023-04-08T00:08:05;11.45;;;4.90;;
18685;SDS011;9473;52.342;13.110;2023-04-08T00:10:32;9.80;;;5.35;;
18685;SDS011;9473;52.342;13.110;2023-04-08T00:12:59;10.02;;;4.93;;
18685;SDS011;9473;52.342;13.110;2023-04-08T00:15:26;10.43;;;5.18;;
18685;SDS011;9473;52.342;13.110;2023-04-08T00:17:53;10.95;;;5.18;;
18685;SDS011;9473;52.342;13.110;2023-04-08T00:20:21;11.05;;;4.97;;
18685;SDS011;9473;52.342;13.110;2023-04-08T00:22:48;8.68;;;4.45;;
18685;SDS011;9473;52.342;13.110;2023-04-08T00:25:15;9.57;;;5.18;;
18685;SDS011;9473;52.342;13.110;2023-04-08T00:27:42;7.78;;;4.53;;
18685;SDS011;9473;52.342;13.110;2023-04-08T00:30:09;7.38;;;4.35;;
18685;SDS011;9473;52.342;13.110;2023-04-08T00:32:36;9.95;;;4.90;;
18685;SDS011;9473;52.342;13.110;2023-04-08T00:35:03;9.05;;;4.93;;
18685;SDS011;9473;52.342;13.110;2023-04-08T00:37:32;8.00;;;4.47;;
18685;SDS011;9473;52.342;13.110;2023-04-08T00:39:59;11.23;;;5.13;;
18685;SDS011;9473;52.342;13.110;2023-04-08T00:42:26;12.95;;;5.15;;
18685;SDS011;9473;52.342;13.110;2023-04-08T00:44:54;9.73;;;5.05;;
18685;SDS011;9473;52.342;13.110;2023-04-08T00:47:21;10.52;;;5.57;;
18685;SDS011;9473;52.342;13.110;2023-04-08T00:49:48;11.32;;;6.07;;
18685;SDS011;9473;52.342;13.110;2023-04-08T00:52:15;10.00;;;5.53;;
18685;SDS011;9473;52.342;13.110;2023-04-08T00:54:43;10.85;;;5.18;;
18685;SDS011;9473;52.342;13.110;2023-04-08T00:57:10;10.55;;;5.80;;
18685;SDS011;9473;52.342;13.110;2023-04-08T00:59:37;10.13;;;5.43;;
18685;SDS011;9473;52.342;13.110;2023-04-08T01:02:06;11.05;;;5.85;;
18685;SDS011;9473;52.342;13.110;2023-04-08T01:04:38;9.63;;;5.28;;
18685;SDS011;9473;52.342;13.110;2023-04-08T01:07:07;15.25;;;6.57;;
18685;SDS011;9473;52.342;13.110;2023-04-08T01:09:36;17.52;;;6.32;;
18685;SDS011;9473;52.342;13.110;2023-04-08T01:12:06;13.40;;;6.43;;
18685;SDS011;9473;52.342;13.110;2023-04-08T01:14:33;11.50;;;6.20;;
18685;SDS011;9473;52.342;13.110;2023-04-08T01:17:01;13.23;;;6.72;;
18685;SDS011;9473;52.342;13.110;2023-04-08T01:19:28;13.73;;;6.72;;
18685;SDS011;9473;52.342;13.110;2023-04-08T01:22:00;16.42;;;7.75;;
18685;SDS011;9473;52.342;13.110;2023-04-08T01:24:28;15.80;;;7.30;;
18685;SDS011;9473;52.342;13.110;2023-04-08T01:26:58;16.88;;;8.00;;
18685;SDS011;9473;52.342;13.110;2023-04-08T01:29:26;18.90;;;8.68;;
18685;SDS011;9473;52.342;13.110;2023-04-08T01:31:53;20.80;;;9.38;;
18685;SDS011;9473;52.342;13.110;2023-04-08T01:34:21;18.42;;;8.32;;
18685;SDS011;9473;52.342;13.110;2023-04-08T01:36:48;17.80;;;8.48;;
18685;SDS011;9473;52.342;13.110;2023-04-08T01:39:16;22.15;;;9.25;;
18685;SDS011;9473;52.342;13.110;2023-04-08T01:41:45;20.35;;;9.13;;
18685;SDS011;9473;52.342;13.110;2023-04-08T01:44:13;18.48;;;8.70;;
18685;SDS011;9473;52.342;13.110;2023-04-08T01:46:41;22.00;;;9.75;;
18685;SDS011;9473;52.342;13.110;2023-04-08T01:49:08;23.80;;;9.80;;
18685;SDS011;9473;52.342;13.110;2023-04-08T01:51:35;20.02;;;9.00;;
18685;SDS011;9473;52.342;13.110;2023-04-08T01:54:03;23.08;;;10.30;;
18685;SDS011;9473;52.342;13.110;2023-04-08T01:56:30;24.90;;;10.25;;
18685;SDS011;9473;52.342;13.110;2023-04-08T01:58:58;21.90;;;10.02;;
18685;SDS011;9473;52.342;13.110;2023-04-08T02:01:27;24.05;;;10.38;;
18685;SDS011;9473;52.342;13.110;2023-04-08T02:03:55;29.30;;;12.15;;
18685;SDS011;9473;52.342;13.110;2023-04-08T02:06:23;26.23;;;11.52;;
18685;SDS011;9473;52.342;13.110;2023-04-08T02:08:52;28.95;;;12.15;;
18685;SDS011;9473;52.342;13.110;2023-04-08T02:11:19;27.00;;;10.25;;
18685;SDS011;9473;52.342;13.110;2023-04-08T02:13:46;28.48;;;12.30;;
18685;SDS011;9473;52.342;13.110;2023-04-08T02:16:14;27.27;;;11.30;;
18685;SDS011;9473;52.342;13.110;2023-04-08T02:18:44;26.65;;;11.23;;
18685;SDS011;9473;52.342;13.110;2023-04-08T02:21:13;31.77;;;12.88;;
18685;SDS011;9473;52.342;13.110;2023-04-08T02:23:41;31.42;;;11.95;;
18685;SDS011;9473;52.342;13.110;2023-04-08T02:26:11;32.42;;;13.02;;
18685;SDS011;9473;52.342;13.110;2023-04-08T02:28:39;35.90;;;13.52;;
18685;SDS011;9473;52.342;13.110;2023-04-08T02:31:08;29.65;;;12.18;;
18685;SDS011;9473;52.342;13.110;2023-04-08T02:33:37;34.42;;;13.23;;
18685;SDS011;9473;52.342;13.110;2023-04-08T02:36:06;30.58;;;12.05;;
18685;SDS011;9473;52.342;13.110;2023-04-08T02:38:33;35.30;;;14.02;;
18685;SDS011;9473;52.342;13.110;2023-04-08T02:41:00;30.42;;;12.20;;
18685;SDS011;9473;52.342;13.110;2023-04-08T02:43:27;38.10;;;13.60;;
18685;SDS011;9473;52.342;13.110;2023-04-08T02:45:56;32.70;;;12.38;;
18685;SDS011;9473;52.342;13.110;2023-04-08T02:48:23;32.97;;;12.73;;
18685;SDS011;9473;52.342;13.110;2023-04-08T02:50:50;36.47;;;14.52;;
18685;SDS011;9473;52.342;13.110;2023-04-08T02:53:18;46.13;;;14.82;;
18685;SDS011;9473;52.342;13.110;2023-04-08T02:55:45;37.70;;;13.30;;
18685;SDS011;9473;52.342;13.110;2023-04-08T02:58:12;37.22;;;13.32;;
18685;SDS011;9473;52.342;13.110;2023-04-08T03:00:39;37.00;;;13.75;;
18685;SDS011;9473;52.342;13.110;2023-04-08T03:03:06;36.58;;;14.40;;
18685;SDS011;9473;52.342;13.110;2023-04-08T03:05:33;41.40;;;14.75;;
18685;SDS011;9473;52.342;13.110;2023-04-08T03:08:00;40.10;;;15.38;;
18685;SDS011;9473;52.342;13.110;2023-04-08T03:10:28;44.30;;;14.60;;
18685;SDS011;9473;52.342;13.110;2023-04-08T03:12:55;40.17;;;13.45;;
18685;SDS011;9473;52.342;13.110;2023-04-08T03:15:22;46.28;;;15.15;;
18685;SDS011;9473;52.342;13.110;2023-04-08T03:17:49;43.60;;;15.15;;
18685;SDS011;9473;52.342;13.110;2023-04-08T03:20:16;40.47;;;15.63;;
18685;SDS011;9473;52.342;13.110;2023-04-08T03:22:43;44.30;;;15.25;;
18685;SDS011;9473;52.342;13.110;2023-04-08T03:25:10;40.67;;;14.65;;
18685;SDS011;9473;52.342;13.110;2023-04-08T03:27:38;41.50;;;14.98;;
18685;SDS011;9473;52.342;13.110;2023-04-08T03:30:06;40.40;;;14.60;;
18685;SDS011;9473;52.342;13.110;2023-04-08T03:32:33;36.38;;;14.27;;
18685;SDS011;9473;52.342;13.110;2023-04-08T03:35:00;36.95;;;14.10;;
18685;SDS011;9473;52.342;13.110;2023-04-08T03:37:27;44.00;;;12.85;;
18685;SDS011;9473;52.342;13.110;2023-04-08T03:39:54;36.38;;;12.82;;
18685;SDS011;9473;52.342;13.110;2023-04-08T03:42:21;39.97;;;13.85;;
18685;SDS011;9473;52.342;13.110;2023-04-08T03:44:49;37.95;;;13.48;;
18685;SDS011;9473;52.342;13.110;2023-04-08T03:47:16;49.75;;;15.27;;
18685;SDS011;9473;52.342;13.110;2023-04-08T03:49:43;46.50;;;15.32;;
18685;SDS011;9473;52.342;13.110;2023-04-08T03:52:09;37.30;;;14.80;;
18685;SDS011;9473;52.342;13.110;2023-04-08T03:54:36;40.60;;;15.38;;
18685;SDS011;9473;52.342;13.110;2023-04-08T03:57:03;40.65;;;14.98;;
18685;SDS011;9473;52.342;13.110;2023-04-08T03:59:30;38.90;;;14.43;;
18685;SDS011;9473;52.342;13.110;2023-04-08T04:02:00;46.25;;;15.93;;
18685;SDS011;9473;52.342;13.110;2023-04-08T04:04:27;38.97;;;15.15;;
18685;SDS011;9473;52.342;13.110;2023-04-08T04:06:53;40.72;;;14.80;;
18685;SDS011;9473;52.342;13.110;2023-04-08T04:09:21;40.92;;;14.23;;
18685;SDS011;9473;52.342;13.110;2023-04-08T04:11:47;39.25;;;13.85;;
18685;SDS011;9473;52.342;13.110;2023-04-08T04:14:14;42.05;;;14.73;;
18685;SDS011;9473;52.342;13.110;2023-04-08T04:16:41;40.38;;;15.05;;
18685;SDS011;9473;52.342;13.110;2023-04-08T04:19:09;41.60;;;14.07;;
18685;SDS011;9473;52.342;13.110;2023-04-08T04:21:36;42.22;;;15.00;;
18685;SDS011;9473;52.342;13.110;2023-04-08T04:24:03;42.80;;;14.80;;
18685;SDS011;9473;52.342;13.110;2023-04-08T04:26:30;39.88;;;14.35;;
18685;SDS011;9473;52.342;13.110;2023-04-08T04:28:57;40.00;;;13.45;;
18685;SDS011;9473;52.342;13.110;2023-04-08T04:31:24;39.45;;;13.88;;
18685;SDS011;9473;52.342;13.110;2023-04-08T04:33:51;45.03;;;14.52;;
18685;SDS011;9473;52.342;13.110;2023-04-08T04:36:19;42.47;;;15.50;;
18685;SDS011;9473;52.342;13.110;2023-04-08T04:38:46;39.78;;;14.25;;
18685;SDS011;9473;52.342;13.110;2023-04-08T04:41:13;47.95;;;16.77;;
18685;SDS011;9473;52.342;13.110;2023-04-08T04:43:40;40.90;;;14.77;;
18685;SDS011;9473;52.342;13.110;2023-04-08T04:46:07;43.55;;;15.52;;
18685;SDS011;9473;52.342;13.110;2023-04-08T04:48:34;50.50;;;15.63;;
18685;SDS011;9473;52.342;13.110;2023-04-08T04:51:02;37.78;;;14.60;;
18685;SDS011;9473;52.342;13.110;2023-04-08T04:53:30;48.03;;;16.00;;
18685;SDS011;9473;52.342;13.110;2023-04-08T04:55:57;39.45;;;14.90;;
18685;SDS011;9473;52.342;13.110;2023-04-08T04:58:25;41.20;;;15.23;;
18685;SDS011;9473;52.342;13.110;2023-04-08T05:00:52;42.78;;;14.93;;
18685;SDS011;9473;52.342;13.110;2023-04-08T05:03:19;42.58;;;16.10;;
18685;SDS011;9473;52.342;13.110;2023-04-08T05:05:49;37.35;;;14.05;;
18685;SDS011;9473;52.342;13.110;2023-04-08T05:08:16;45.22;;;15.98;;
18685;SDS011;9473;52.342;13.110;2023-04-08T05:10:44;46.65;;;16.02;;
18685;SDS011;9473;52.342;13.110;2023-04-08T05:13:11;53.90;;;16.60;;
18685;SDS011;9473;52.342;13.110;2023-04-08T05:15:38;46.20;;;15.73;;
18685;SDS011;9473;52.342;13.110;2023-04-08T05:18:05;57.45;;;16.45;;
18685;SDS011;9473;52.342;13.110;2023-04-08T05:20:32;43.63;;;15.43;;
18685;SDS011;9473;52.342;13.110;2023-04-08T05:22:58;49.35;;;16.67;;
18685;SDS011;9473;52.342;13.110;2023-04-08T05:25:25;48.00;;;16.25;;
18685;SDS011;9473;52.342;13.110;2023-04-08T05:27:53;49.53;;;17.80;;
18685;SDS011;9473;52.342;13.110;2023-04-08T05:30:21;57.22;;;18.17;;
18685;SDS011;9473;52.342;13.110;2023-04-08T05:32:48;48.03;;;16.27;;
18685;SDS011;9473;52.342;13.110;2023-04-08T05:35:15;53.60;;;18.00;;
18685;SDS011;9473;52.342;13.110;2023-04-08T05:37:42;56.45;;;18.23;;
18685;SDS011;9473;52.342;13.110;2023-04-08T05:40:09;55.05;;;18.60;;
18685;SDS011;9473;52.342;13.110;2023-04-08T05:42:36;47.90;;;16.45;;
18685;SDS011;9473;52.342;13.110;2023-04-08T05:45:05;52.20;;;17.75;;
18685;SDS011;9473;52.342;13.110;2023-04-08T05:47:32;50.75;;;16.75;;
18685;SDS011;9473;52.342;13.110;2023-04-08T05:49:59;50.95;;;16.88;;
18685;SDS011;9473;52.342;13.110;2023-04-08T05:52:26;59.97;;;17.75;;
18685;SDS011;9473;52.342;13.110;2023-04-08T05:54:52;52.42;;;17.55;;
18685;SDS011;9473;52.342;13.110;2023-04-08T05:57:19;60.42;;;17.50;;
18685;SDS011;9473;52.342;13.110;2023-04-08T05:59:46;48.75;;;15.95;;
18685;SDS011;9473;52.342;13.110;2023-04-08T06:02:14;54.60;;;17.60;;
18685;SDS011;9473;52.342;13.110;2023-04-08T06:04:41;51.88;;;18.00;;
18685;SDS011;9473;52.342;13.110;2023-04-08T06:07:08;54.53;;;18.35;;
18685;SDS011;9473;52.342;13.110;2023-04-08T06:09:35;49.63;;;17.52;;
18685;SDS011;9473;52.342;13.110;2023-04-08T06:12:02;56.85;;;18.67;;
18685;SDS011;9473;52.342;13.110;2023-04-08T06:14:29;52.20;;;17.30;;
18685;SDS011;9473;52.342;13.110;2023-04-08T06:16:56;51.00;;;18.10;;
18685;SDS011;9473;52.342;13.110;2023-04-08T06:19:24;55.55;;;17.92;;
18685;SDS011;9473;52.342;13.110;2023-04-08T06:21:51;50.40;;;17.05;;
18685;SDS011;9473;52.342;13.110;2023-04-08T06:24:22;50.88;;;17.52;;
18685;SDS011;9473;52.342;13.110;2023-04-08T06:26:50;54.80;;;17.65;;
18685;SDS011;9473;52.342;13.110;2023-04-08T06:29:17;50.40;;;17.92;;
18685;SDS011;9473;52.342;13.110;2023-04-08T06:31:44;51.40;;;17.45;;
18685;SDS011;9473;52.342;13.110;2023-04-08T06:34:11;54.10;;;18.00;;
18685;SDS011;9473;52.342;13.110;2023-04-08T06:36:39;49.92;;;18.38;;
18685;SDS011;9473;52.342;13.110;2023-04-08T06:39:06;48.67;;;17.42;;
18685;SDS011;9473;52.342;13.110;2023-04-08T06:41:33;51.33;;;17.23;;
18685;SDS011;9473;52.342;13.110;2023-04-08T06:44:00;48.85;;;17.52;;
18685;SDS011;9473;52.342;13.110;2023-04-08T06:46:27;51.40;;;17.65;;
18685;SDS011;9473;52.342;13.110;2023-04-08T06:48:54;47.95;;;16.33;;
18685;SDS011;9473;52.342;13.110;2023-04-08T06:51:21;48.10;;;17.23;;
18685;SDS011;9473;52.342;13.110;2023-04-08T06:53:49;53.20;;;18.02;;
18685;SDS011;9473;52.342;13.110;2023-04-08T06:56:16;48.13;;;18.25;;
18685;SDS011;9473;52.342;13.110;2023-04-08T06:58:45;46.30;;;16.55;;
18685;SDS011;9473;52.342;13.110;2023-04-08T07:01:12;48.70;;;18.17;;
18685;SDS011;9473;52.342;13.110;2023-04-08T07:03:40;46.17;;;17.83;;
18685;SDS011;9473;52.342;13.110;2023-04-08T07:06:07;57.25;;;18.83;;
18685;SDS011;9473;52.342;13.110;2023-04-08T07:08:34;46.25;;;18.00;;
18685;SDS011;9473;52.342;13.110;2023-04-08T07:11:02;49.63;;;18.50;;
18685;SDS011;9473;52.342;13.110;2023-04-08T07:13:29;49.63;;;17.77;;
18685;SDS011;9473;52.342;13.110;2023-04-08T07:15:56;47.60;;;17.98;;
18685;SDS011;9473;52.342;13.110;2023-04-08T07:18:23;49.13;;;17.73;;
18685;SDS011;9473;52.342;13.110;2023-04-08T07:20:50;49.78;;;18.67;;
18685;SDS011;9473;52.342;13.110;2023-04-08T07:23:17;60.67;;;19.80;;
18685;SDS011;9473;52.342;13.110;2023-04-08T07:25:44;54.55;;;19.45;;
18685;SDS011;9473;52.342;13.110;2023-04-08T07:28:13;53.42;;;19.45;;
18685;SDS011;9473;52.342;13.110;2023-04-08T07:30:40;51.22;;;19.10;;
18685;SDS011;9473;52.342;13.110;2023-04-08T07:33:07;53.75;;;17.88;;
18685;SDS011;9473;52.342;13.110;2023-04-08T07:35:33;55.33;;;19.55;;
18685;SDS011;9473;52.342;13.110;2023-04-08T07:38:00;48.67;;;19.05;;
18685;SDS011;9473;52.342;13.110;2023-04-08T07:40:27;54.03;;;19.55;;
18685;SDS011;9473;52.342;13.110;2023-04-08T07:42:54;55.83;;;20.13;;
18685;SDS011;9473;52.342;13.110;2023-04-08T07:45:23;52.63;;;19.58;;
18685;SDS011;9473;52.342;13.110;2023-04-08T07:47:49;57.72;;;20.00;;
18685;SDS011;9473;52.342;13.110;2023-04-08T07:50:16;50.00;;;19.58;;
18685;SDS011;9473;52.342;13.110;2023-04-08T07:52:43;54.72;;;19.80;;
18685;SDS011;9473;52.342;13.110;2023-04-08T07:55:10;52.42;;;18.85;;
18685;SDS011;9473;52.342;13.110;2023-04-08T07:57:37;49.17;;;18.92;;
18685;SDS011;9473;52.342;13.110;2023-04-08T08:00:05;52.13;;;20.02;;
18685;SDS011;9473;52.342;13.110;2023-04-08T08:02:33;61.20;;;19.90;;
18685;SDS011;9473;52.342;13.110;2023-04-08T08:05:00;56.97;;;19.83;;
18685;SDS011;9473;52.342;13.110;2023-04-08T08:07:27;55.35;;;19.17;;
18685;SDS011;9473;52.342;13.110;2023-04-08T08:09:55;52.08;;;19.10;;
18685;SDS011;9473;52.342;13.110;2023-04-08T08:12:21;53.47;;;20.55;;
18685;SDS011;9473;52.342;13.110;2023-04-08T08:14:48;49.75;;;19.27;;
18685;SDS011;9473;52.342;13.110;2023-04-08T08:17:18;52.50;;;19.63;;
18685;SDS011;9473;52.342;13.110;2023-04-08T08:19:46;50.33;;;17.90;;
18685;SDS011;9473;52.342;13.110;2023-04-08T08:22:14;53.90;;;19.75;;
18685;SDS011;9473;52.342;13.110;2023-04-08T08:24:41;52.10;;;19.52;;
18685;SDS011;9473;52.342;13.110;2023-04-08T08:27:08;52.72;;;19.33;;
18685;SDS011;9473;52.342;13.110;2023-04-08T08:29:35;53.13;;;19.95;;
18685;SDS011;9473;52.342;13.110;2023-04-08T08:32:02;49.42;;;18.95;;
18685;SDS011;9473;52.342;13.110;2023-04-08T08:34:29;51.22;;;19.65;;
18685;SDS011;9473;52.342;13.110;2023-04-08T08:36:58;51.90;;;20.05;;
18685;SDS011;9473;52.342;13.110;2023-04-08T08:39:25;54.63;;;19.55;;
18685;SDS011;9473;52.342;13.110;2023-04-08T08:41:52;50.70;;;19.65;;
18685;SDS011;9473;52.342;13.110;2023-04-08T08:44:20;52.80;;;19.30;;
18685;SDS011;9473;52.342;13.110;2023-04-08T08:46:47;54.75;;;19.73;;
18685;SDS011;9473;52.342;13.110;2023-04-08T08:49:14;47.47;;;19.88;;
18685;SDS011;9473;52.342;13.110;2023-04-08T08:51:41;47.20;;;19.27;;
18685;SDS011;9473;52.342;13.110;2023-04-08T08:54:12;52.22;;;18.48;;
18685;SDS011;9473;52.342;13.110;2023-04-08T08:56:40;51.28;;;19.48;;
18685;SDS011;9473;52.342;13.110;2023-04-08T08:59:08;48.88;;;18.92;;
18685;SDS011;9473;52.342;13.110;2023-04-08T09:01:35;49.40;;;18.13;;
18685;SDS011;9473;52.342;13.110;2023-04-08T09:04:06;52.50;;;19.73;;
18685;SDS011;9473;52.342;13.110;2023-04-08T09:06:34;51.95;;;19.20;;
18685;SDS011;9473;52.342;13.110;2023-04-08T09:09:00;50.47;;;19.73;;
18685;SDS011;9473;52.342;13.110;2023-04-08T09:11:31;44.40;;;18.00;;
18685;SDS011;9473;52.342;13.110;2023-04-08T09:13:58;52.28;;;19.77;;
18685;SDS011;9473;52.342;13.110;2023-04-08T09:16:25;55.78;;;20.13;;
18685;SDS011;9473;52.342;13.110;2023-04-08T09:18:52;50.15;;;18.48;;
18685;SDS011;9473;52.342;13.110;2023-04-08T09:21:21;46.97;;;18.08;;
18685;SDS011;9473;52.342;13.110;2023-04-08T09:23:51;44.05;;;18.40;;
18685;SDS011;9473;52.342;13.110;2023-04-08T09:26:19;49.42;;;18.48;;
18685;SDS011;9473;52.342;13.110;2023-04-08T09:28:57;45.67;;;17.85;;
18685;SDS011;9473;52.342;13.110;2023-04-08T09:31:25;45.67;;;17.90;;
18685;SDS011;9473;52.342;13.110;2023-04-08T09:33:52;46.28;;;18.20;;
18685;SDS011;9473;52.342;13.110;2023-04-08T09:36:20;46.90;;;18.67;;
18685;SDS011;9473;52.342;13.110;2023-04-08T09:38:47;45.58;;;17.88;;
18685;SDS011;9473;52.342;13.110;2023-04-08T09:41:14;47.70;;;17.98;;
18685;SDS011;9473;52.342;13.110;2023-04-08T09:43:42;42.90;;;17.52;;
18685;SDS011;9473;52.342;13.110;2023-04-08T09:46:14;43.47;;;17.48;;
18685;SDS011;9473;52.342;13.110;2023-04-08T09:48:45;46.28;;;18.45;;
18685;SDS011;9473;52.342;13.110;2023-04-08T09:51:14;43.97;;;17.95;;
18685;SDS011;9473;52.342;13.110;2023-04-08T09:53:44;40.33;;;16.98;;
18685;SDS011;9473;52.342;13.110;2023-04-08T09:56:12;44.47;;;18.08;;
18685;SDS011;9473;52.342;13.110;2023-04-08T09:58:40;44.42;;;17.92;;
18685;SDS011;9473;52.342;13.110;2023-04-08T10:01:08;43.38;;;18.02;;
18685;SDS011;9473;52.342;13.110;2023-04-08T10:03:44;45.50;;;17.95;;
18685;SDS011;9473;52.342;13.110;2023-04-08T10:06:12;44.00;;;16.67;;
18685;SDS011;9473;52.342;13.110;2023-04-08T10:08:40;44.45;;;17.33;;
18685;SDS011;9473;52.342;13.110;2023-04-08T10:11:07;45.80;;;18.33;;
18685;SDS011;9473;52.342;13.110;2023-04-08T10:13:34;42.17;;;17.85;;
18685;SDS011;9473;52.342;13.110;2023-04-08T10:16:16;46.13;;;18.08;;
18685;SDS011;9473;52.342;13.110;2023-04-08T10:18:45;43.03;;;17.92;;
18685;SDS011;9473;52.342;13.110;2023-04-08T10:24:01;41.83;;;17.27;;
18685;SDS011;9473;52.342;13.110;2023-04-08T10:26:35;38.47;;;16.27;;
18685;SDS011;9473;52.342;13.110;2023-04-08T10:31:48;45.47;;;17.25;;
18685;SDS011;9473;52.342;13.110;2023-04-08T10:34:16;41.15;;;16.35;;
18685;SDS011;9473;52.342;13.110;2023-04-08T10:36:44;38.40;;;15.20;;
18685;SDS011;9473;52.342;13.110;2023-04-08T10:39:11;34.15;;;15.25;;
18685;SDS011;9473;52.342;13.110;2023-04-08T10:41:40;39.65;;;14.35;;
18685;SDS011;9473;52.342;13.110;2023-04-08T10:44:14;38.13;;;15.27;;
18685;SDS011;9473;52.342;13.110;2023-04-08T10:46:41;34.70;;;14.88;;
18685;SDS011;9473;52.342;13.110;2023-04-08T10:49:08;29.88;;;13.52;;
18685;SDS011;9473;52.342;13.110;2023-04-08T10:51:36;26.27;;;12.68;;
18685;SDS011;9473;52.342;13.110;2023-04-08T10:54:04;27.83;;;12.35;;
18685;SDS011;9473;52.342;13.110;2023-04-08T10:56:31;27.27;;;12.10;;
18685;SDS011;9473;52.342;13.110;2023-04-08T10:58:58;24.30;;;11.40;;
18685;SDS011;9473;52.342;13.110;2023-04-08T11:01:25;24.58;;;10.80;;
18685;SDS011;9473;52.342;13.110;2023-04-08T11:03:53;29.70;;;12.80;;
18685;SDS011;9473;52.342;13.110;2023-04-08T11:06:20;29.48;;;12.88;;
18685;SDS011;9473;52.342;13.110;2023-04-08T11:08:50;27.00;;;11.68;;
18685;SDS011;9473;52.342;13.110;2023-04-08T11:11:17;25.25;;;11.98;;
18685;SDS011;9473;52.342;13.110;2023-04-08T11:13:45;26.58;;;12.15;;
18685;SDS011;9473;52.342;13.110;2023-04-08T11:16:13;24.33;;;11.90;;
18685;SDS011;9473;52.342;13.110;2023-04-08T11:18:40;26.48;;;12.18;;
18685;SDS011;9473;52.342;13.110;2023-04-08T11:21:07;26.67;;;11.90;;
18685;SDS011;9473;52.342;13.110;2023-04-08T11:23:34;26.80;;;11.98;;
18685;SDS011;9473;52.342;13.110;2023-04-08T11:26:03;27.98;;;11.70;;
18685;SDS011;9473;52.342;13.110;2023-04-08T11:28:30;27.77;;;11.68;;
18685;SDS011;9473;52.342;13.110;2023-04-08T11:30:57;25.55;;;12.40;;
18685;SDS011;9473;52.342;13.110;2023-04-08T11:33:24;22.17;;;10.68;;
18685;SDS011;9473;52.342;13.110;2023-04-08T11:35:52;24.67;;;12.20;;
18685;SDS011;9473;52.342;13.110;2023-04-08T11:38:20;26.73;;;11.70;;
18685;SDS011;9473;52.342;13.110;2023-04-08T11:40:51;27.08;;;12.27;;
18685;SDS011;9473;52.342;13.110;2023-04-08T11:43:20;26.27;;;11.88;;
18685;SDS011;9473;52.342;13.110;2023-04-08T11:45:47;26.42;;;12.07;;
18685;SDS011;9473;52.342;13.110;2023-04-08T11:48:14;26.42;;;12.52;;
18685;SDS011;9473;52.342;13.110;2023-04-08T11:50:42;26.23;;;12.15;;
18685;SDS011;9473;52.342;13.110;2023-04-08T11:53:15;24.05;;;12.13;;
18685;SDS011;9473;52.342;13.110;2023-04-08T11:55:43;26.15;;;11.77;;
18685;SDS011;9473;52.342;13.110;2023-04-08T11:58:10;30.05;;;12.75;;
18685;SDS011;9473;52.342;13.110;2023-04-08T12:00:38;26.90;;;12.50;;
18685;SDS011;9473;52.342;13.110;2023-04-08T12:03:06;23.15;;;11.50;;
18685;SDS011;9473;52.342;13.110;2023-04-08T12:05:33;23.85;;;11.38;;
18685;SDS011;9473;52.342;13.110;2023-04-08T12:08:00;23.88;;;11.55;;
18685;SDS011;9473;52.342;13.110;2023-04-08T12:10:28;22.67;;;10.95;;
18685;SDS011;9473;52.342;13.110;2023-04-08T12:12:55;23.67;;;10.98;;
18685;SDS011;9473;52.342;13.110;2023-04-08T12:15:22;23.15;;;12.25;;
18685;SDS011;9473;52.342;13.110;2023-04-08T12:17:50;22.60;;;11.18;;
18685;SDS011;9473;52.342;13.110;2023-04-08T12:20:17;26.25;;;12.32;;
18685;SDS011;9473;52.342;13.110;2023-04-08T12:22:44;23.02;;;12.07;;
18685;SDS011;9473;52.342;13.110;2023-04-08T12:25:11;20.77;;;10.38;;
18685;SDS011;9473;52.342;13.110;2023-04-08T12:27:38;21.90;;;11.27;;
18685;SDS011;9473;52.342;13.110;2023-04-08T12:30:05;26.10;;;11.25;;
18685;SDS011;9473;52.342;13.110;2023-04-08T12:32:32;24.38;;;11.75;;
18685;SDS011;9473;52.342;13.110;2023-04-08T12:35:00;23.60;;;10.82;;
18685;SDS011;9473;52.342;13.110;2023-04-08T12:37:27;20.85;;;11.15;;
18685;SDS011;9473;52.342;13.110;2023-04-08T12:39:54;22.63;;;11.48;;
18685;SDS011;9473;52.342;13.110;2023-04-08T12:42:21;20.48;;;10.88;;
18685;SDS011;9473;52.342;13.110;2023-04-08T12:44:48;19.92;;;10.00;;
18685;SDS011;9473;52.342;13.110;2023-04-08T12:47:15;18.75;;;9.77;;
18685;SDS011;9473;52.342;13.110;2023-04-08T12:49:42;21.27;;;10.52;;
18685;SDS011;9473;52.342;13.110;2023-04-08T12:52:10;21.67;;;10.77;;
18685;SDS011;9473;52.342;13.110;2023-04-08T12:54:37;23.67;;;11.23;;
18685;SDS011;9473;52.342;13.110;2023-04-08T12:57:04;23.23;;;10.93;;
18685;SDS011;9473;52.342;13.110;2023-04-08T12:59:31;22.58;;;11.00;;
18685;SDS011;9473;52.342;13.110;2023-04-08T13:01:58;26.77;;;12.77;;
18685;SDS011;9473;52.342;13.110;2023-04-08T13:04:25;24.00;;;11.73;;
18685;SDS011;9473;52.342;13.110;2023-04-08T13:06:52;26.33;;;12.00;;
18685;SDS011;9473;52.342;13.110;2023-04-08T13:09:20;24.90;;;10.75;;
18685;SDS011;9473;52.342;13.110;2023-04-08T13:11:47;19.90;;;10.57;;
18685;SDS011;9473;52.342;13.110;2023-04-08T13:14:14;19.05;;;10.02;;
18685;SDS011;9473;52.342;13.110;2023-04-08T13:16:42;21.83;;;9.95;;
18685;SDS011;9473;52.342;13.110;2023-04-08T13:19:09;20.60;;;9.80;;
18685;SDS011;9473;52.342;13.110;2023-04-08T13:21:35;20.13;;;10.32;;
18685;SDS011;9473;52.342;13.110;2023-04-08T13:24:03;19.33;;;10.23;;
18685;SDS011;9473;52.342;13.110;2023-04-08T13:26:31;16.70;;;9.90;;
18685;SDS011;9473;52.342;13.110;2023-04-08T13:28:58;17.35;;;8.82;;
18685;SDS011;9473;52.342;13.110;2023-04-08T13:31:25;13.40;;;7.80;;
18685;SDS011;9473;52.342;13.110;2023-04-08T13:33:52;12.18;;;7.25;;
18685;SDS011;9473;52.342;13.110;2023-04-08T13:36:19;11.70;;;6.82;;
18685;SDS011;9473;52.342;13.110;2023-04-08T13:38:46;15.07;;;7.68;;
18685;SDS011;9473;52.342;13.110;2023-04-08T13:41:12;13.30;;;7.22;;
18685;SDS011;9473;52.342;13.110;2023-04-08T13:43:41;13.30;;;7.03;;
18685;SDS011;9473;52.342;13.110;2023-04-08T13:46:07;13.40;;;6.93;;
18685;SDS011;9473;52.342;13.110;2023-04-08T13:48:35;14.27;;;6.93;;
18685;SDS011;9473;52.342;13.110;2023-04-08T13:51:02;13.30;;;7.15;;
18685;SDS011;9473;52.342;13.110;2023-04-08T13:53:29;13.60;;;7.43;;
18685;SDS011;9473;52.342;13.110;2023-04-08T13:55:56;12.10;;;7.18;;
18685;SDS011;9473;52.342;13.110;2023-04-08T13:58:23;13.27;;;7.80;;
18685;SDS011;9473;52.342;13.110;2023-04-08T14:00:51;11.82;;;6.78;;
18685;SDS011;9473;52.342;13.110;2023-04-08T14:03:19;11.63;;;7.18;;
18685;SDS011;9473;52.342;13.110;2023-04-08T14:05:46;11.27;;;6.53;;
18685;SDS011;9473;52.342;13.110;2023-04-08T14:08:14;11.70;;;6.47;;
18685;SDS011;9473;52.342;13.110;2023-04-08T14:10:48;10.88;;;5.90;;
18685;SDS011;9473;52.342;13.110;2023-04-08T14:13:15;10.98;;;6.28;;
18685;SDS011;9473;52.342;13.110;2023-04-08T14:15:42;11.63;;;6.88;;
18685;SDS011;9473;52.342;13.110;2023-04-08T14:18:11;9.95;;;7.00;;
18685;SDS011;9473;52.342;13.110;2023-04-08T14:20:41;12.32;;;6.72;;
18685;SDS011;9473;52.342;13.110;2023-04-08T14:23:08;13.73;;;6.95;;
18685;SDS011;9473;52.342;13.110;2023-04-08T14:25:35;11.43;;;6.35;;
18685;SDS011;9473;52.342;13.110;2023-04-08T14:28:02;12.45;;;7.00;;
18685;SDS011;9473;52.342;13.110;2023-04-08T14:30:29;13.18;;;7.15;;
18685;SDS011;9473;52.342;13.110;2023-04-08T14:32:56;11.77;;;6.47;;